Terminal Aerodrome Forecast
Issued by NWS

Current Version | Previous Version | Graphics & Text | Print | Product List | Glossary On
Versions: 1 2 3 4 5 6 7 8 9 10 11 12 13 14 15 16 17 18
934
FTUS41 KILN 191021 AAA
TAFLCK
TAF AMD
KLCK 191021Z 1910/2006 19012KT P6SM VCSH OVC015 WS020/21040KT
     FM191100 18009KT 3SM -SHRA VCTS OVC012CB WS020/21040KT
     FM191400 19009KT 3SM -SHRA OVC009
     FM192000 20011G19KT P6SM SCT015 OVC035
     FM200300 19010KT P6SM SCT035 BKN250 WS020/21040KT=

USA.gov is the U.S. government's official web portal to all federal, state and local government web resources and services.